Georgetown, SC

7:23 PM EST on February 07, 2016 (GMT -0500)
MPP Plantation | | Change Station
CLOSE
Current Station
Personal Weather Station
Location: Andrews, SC
Elevation: 43 ft
Nearby Weather Stations
Active Advisory: Flood Warning Active Notice: Record Report

Elev 43 ft 33.50 °N, 79.46 °W | Updated 6 minutes ago

Partly Cloudy
Partly Cloudy
39.7 °F
Feels Like 35 °F
N
6.0
Wind Variable Wind from ESE
Gusts 10.0 mph

Today
High -- | Low -- °F
--% Chance of Precip.
Yesterday
High -- | Low -- °F
Precip. -- in
Pressure 29.86 in
Visibility 10.0 miles
Clouds Clear
Windchill 35 °F
Dew Point 40 °F
Humidity 100%
Rainfall 0.36 in
Snow Depth Not available.
7:09 AM 5:53 PM
Waning Crescent, 1% visible
METAR KGGE 080015Z AUTO 30010KT 10SM CLR 04/00 A2986 RMK AO2
Pressure 29.86 in
Visibility 10.0 miles
Clouds Clear
Windchill 35 °F
Dew Point 40 °F
Humidity 100%
Rainfall 0.36 in
Snow Depth Not available.
7:09 AM 5:53 PM
Waning Crescent, 1% visible
METAR KGGE 080015Z AUTO 30010KT 10SM CLR 04/00 A2986 RMK AO2

10-Day Weather Forecast

Almanac

Astronomy

Feb. 07, 2016 Rise Set
Actual Time
Civil Twilight
Nautical Twilight
Astronomical Twilight
Moon
Length of Visible Light
Length of Day
Tomorrow will be .
, % of the Moon is Illuminated

Today's Extremes

State Highs State Lows

Community

WunderPhotos

Upload Photos

1,891,335 photos uploaded!

WunderBlog® & News

Nearby

Air Quality

  Air Quality AQ Index Pollutant
Not available.

Snow Depth

Station Depth Elevation

Earthquake Activity

City Distance Mag. Time & Date
Minimum magnitude displayed is 2.5.

Coastal Water Temperatures

Place Temperature

Stations

Nearby Weather Stations

Station Location Temp. Windchill Dew Point Humidity Wind Precip. Elev Updated Type
                   

Watches & Warnings

Flood Warning
Issued: 10:35 AM EST Feb. 7, 2016 – National Weather Service

The Flood Warning continues for
the Santee river near Jamestown.
* At 9 am Sunday the stage was 13.1 feet.
* Flood stage is 10.0 feet.
* Minor flooding is occurring.
* Forecast, the river will rise to near 14.4 feet by Monday evening
then begin a slow fall.
* At 12.0 feet, several dirt logging roads are impassable.


Lat... Lon 3347 8002 3354 7998 3325 7937 3321 7938
          3320 7951 3329 7976